sensor_id;sensor_type;location;lat;lon;timestamp;P1;durP1;ratioP1;P2;durP2;ratioP2
22894;SDS011;11614;52.494;6.976;2024-01-30T00:00:38;15.30;;;8.23;;
22894;SDS011;11614;52.494;6.976;2024-01-30T00:03:04;13.33;;;7.43;;
22894;SDS011;11614;52.494;6.976;2024-01-30T00:05:30;14.73;;;8.00;;
22894;SDS011;11614;52.494;6.976;2024-01-30T00:07:56;17.83;;;8.87;;
22894;SDS011;11614;52.494;6.976;2024-01-30T00:10:22;14.70;;;7.60;;
22894;SDS011;11614;52.494;6.976;2024-01-30T00:12:48;14.47;;;8.27;;
22894;SDS011;11614;52.494;6.976;2024-01-30T00:15:14;13.70;;;8.50;;
22894;SDS011;11614;52.494;6.976;2024-01-30T00:17:40;14.03;;;7.83;;
22894;SDS011;11614;52.494;6.976;2024-01-30T00:20:06;14.40;;;8.13;;
22894;SDS011;11614;52.494;6.976;2024-01-30T00:22:33;17.83;;;9.33;;
22894;SDS011;11614;52.494;6.976;2024-01-30T00:25:00;16.50;;;8.27;;
22894;SDS011;11614;52.494;6.976;2024-01-30T00:27:26;17.60;;;8.53;;
22894;SDS011;11614;52.494;6.976;2024-01-30T00:29:52;17.77;;;9.30;;
22894;SDS011;11614;52.494;6.976;2024-01-30T00:32:18;15.77;;;8.87;;
22894;SDS011;11614;52.494;6.976;2024-01-30T00:34:45;16.63;;;9.43;;
22894;SDS011;11614;52.494;6.976;2024-01-30T00:37:11;15.43;;;9.00;;
22894;SDS011;11614;52.494;6.976;2024-01-30T00:39:37;17.67;;;9.23;;
22894;SDS011;11614;52.494;6.976;2024-01-30T00:42:03;14.90;;;7.63;;
22894;SDS011;11614;52.494;6.976;2024-01-30T00:44:29;17.77;;;8.77;;
22894;SDS011;11614;52.494;6.976;2024-01-30T00:46:55;16.53;;;9.13;;
22894;SDS011;11614;52.494;6.976;2024-01-30T00:49:21;13.87;;;8.40;;
22894;SDS011;11614;52.494;6.976;2024-01-30T00:51:47;14.03;;;8.37;;
22894;SDS011;11614;52.494;6.976;2024-01-30T00:54:13;14.70;;;8.47;;
22894;SDS011;11614;52.494;6.976;2024-01-30T00:56:39;15.60;;;8.40;;
22894;SDS011;11614;52.494;6.976;2024-01-30T00:59:05;15.23;;;8.50;;
22894;SDS011;11614;52.494;6.976;2024-01-30T01:01:31;13.97;;;8.17;;
22894;SDS011;11614;52.494;6.976;2024-01-30T01:03:57;15.33;;;8.13;;
22894;SDS011;11614;52.494;6.976;2024-01-30T01:06:23;14.80;;;8.43;;
22894;SDS011;11614;52.494;6.976;2024-01-30T01:08:49;16.37;;;8.07;;
22894;SDS011;11614;52.494;6.976;2024-01-30T01:11:15;11.63;;;7.40;;
22894;SDS011;11614;52.494;6.976;2024-01-30T01:13:41;15.17;;;7.87;;
22894;SDS011;11614;52.494;6.976;2024-01-30T01:16:07;13.90;;;7.80;;
22894;SDS011;11614;52.494;6.976;2024-01-30T01:18:33;12.63;;;7.33;;
22894;SDS011;11614;52.494;6.976;2024-01-30T01:20:59;18.87;;;8.67;;
22894;SDS011;11614;52.494;6.976;2024-01-30T01:23:25;15.07;;;7.77;;
22894;SDS011;11614;52.494;6.976;2024-01-30T01:25:51;14.40;;;7.93;;
22894;SDS011;11614;52.494;6.976;2024-01-30T01:28:17;15.00;;;8.50;;
22894;SDS011;11614;52.494;6.976;2024-01-30T01:30:43;14.10;;;7.93;;
22894;SDS011;11614;52.494;6.976;2024-01-30T01:33:09;13.00;;;8.23;;
22894;SDS011;11614;52.494;6.976;2024-01-30T01:35:35;12.97;;;7.50;;
22894;SDS011;11614;52.494;6.976;2024-01-30T01:38:01;13.37;;;8.33;;
22894;SDS011;11614;52.494;6.976;2024-01-30T01:40:27;13.50;;;7.80;;
22894;SDS011;11614;52.494;6.976;2024-01-30T01:42:54;13.20;;;7.83;;
22894;SDS011;11614;52.494;6.976;2024-01-30T01:45:20;18.07;;;8.50;;
22894;SDS011;11614;52.494;6.976;2024-01-30T01:47:47;17.43;;;8.33;;
22894;SDS011;11614;52.494;6.976;2024-01-30T01:50:14;15.77;;;8.10;;
22894;SDS011;11614;52.494;6.976;2024-01-30T01:52:44;13.23;;;8.20;;
22894;SDS011;11614;52.494;6.976;2024-01-30T01:55:11;13.10;;;7.97;;
22894;SDS011;11614;52.494;6.976;2024-01-30T01:57:37;14.03;;;7.83;;
22894;SDS011;11614;52.494;6.976;2024-01-30T02:00:03;16.93;;;8.20;;
22894;SDS011;11614;52.494;6.976;2024-01-30T02:02:32;17.30;;;8.70;;
22894;SDS011;11614;52.494;6.976;2024-01-30T02:05:01;12.20;;;8.07;;
22894;SDS011;11614;52.494;6.976;2024-01-30T02:07:30;13.67;;;7.93;;
22894;SDS011;11614;52.494;6.976;2024-01-30T02:09:56;20.10;;;9.27;;
22894;SDS011;11614;52.494;6.976;2024-01-30T02:12:23;13.13;;;7.50;;
22894;SDS011;11614;52.494;6.976;2024-01-30T02:14:49;12.43;;;7.27;;
22894;SDS011;11614;52.494;6.976;2024-01-30T02:17:16;13.57;;;7.60;;
22894;SDS011;11614;52.494;6.976;2024-01-30T02:19:42;15.43;;;8.13;;
22894;SDS011;11614;52.494;6.976;2024-01-30T02:22:08;15.93;;;7.80;;
22894;SDS011;11614;52.494;6.976;2024-01-30T02:24:35;12.83;;;7.50;;
22894;SDS011;11614;52.494;6.976;2024-01-30T02:27:01;15.50;;;8.23;;
22894;SDS011;11614;52.494;6.976;2024-01-30T02:29:27;16.00;;;8.07;;
22894;SDS011;11614;52.494;6.976;2024-01-30T02:31:53;14.80;;;8.00;;
22894;SDS011;11614;52.494;6.976;2024-01-30T02:34:19;15.73;;;7.33;;
22894;SDS011;11614;52.494;6.976;2024-01-30T02:36:45;12.63;;;7.23;;
22894;SDS011;11614;52.494;6.976;2024-01-30T02:39:11;12.37;;;7.10;;
22894;SDS011;11614;52.494;6.976;2024-01-30T02:41:37;13.13;;;6.97;;
22894;SDS011;11614;52.494;6.976;2024-01-30T02:44:03;12.43;;;7.63;;
22894;SDS011;11614;52.494;6.976;2024-01-30T02:46:29;13.17;;;7.83;;
22894;SDS011;11614;52.494;6.976;2024-01-30T02:48:55;11.97;;;7.33;;
22894;SDS011;11614;52.494;6.976;2024-01-30T02:51:22;14.00;;;7.40;;
22894;SDS011;11614;52.494;6.976;2024-01-30T02:53:48;10.87;;;6.20;;
22894;SDS011;11614;52.494;6.976;2024-01-30T02:56:13;15.63;;;7.57;;
22894;SDS011;11614;52.494;6.976;2024-01-30T02:58:40;15.10;;;7.63;;
22894;SDS011;11614;52.494;6.976;2024-01-30T03:01:06;14.83;;;7.50;;
22894;SDS011;11614;52.494;6.976;2024-01-30T03:03:32;11.57;;;6.67;;
22894;SDS011;11614;52.494;6.976;2024-01-30T03:06:00;15.87;;;7.83;;
22894;SDS011;11614;52.494;6.976;2024-01-30T03:08:26;12.37;;;6.57;;
22894;SDS011;11614;52.494;6.976;2024-01-30T03:10:52;14.17;;;7.97;;
22894;SDS011;11614;52.494;6.976;2024-01-30T03:13:18;16.03;;;7.63;;
22894;SDS011;11614;52.494;6.976;2024-01-30T03:15:45;13.83;;;8.23;;
22894;SDS011;11614;52.494;6.976;2024-01-30T03:18:11;18.17;;;9.33;;
22894;SDS011;11614;52.494;6.976;2024-01-30T03:20:37;13.17;;;8.47;;
22894;SDS011;11614;52.494;6.976;2024-01-30T03:23:03;19.67;;;9.53;;
22894;SDS011;11614;52.494;6.976;2024-01-30T03:25:29;20.00;;;11.50;;
22894;SDS011;11614;52.494;6.976;2024-01-30T03:27:55;18.63;;;10.17;;
22894;SDS011;11614;52.494;6.976;2024-01-30T03:30:21;20.07;;;10.33;;
22894;SDS011;11614;52.494;6.976;2024-01-30T03:32:47;19.27;;;10.63;;
22894;SDS011;11614;52.494;6.976;2024-01-30T03:35:13;19.20;;;10.77;;
22894;SDS011;11614;52.494;6.976;2024-01-30T03:37:40;19.97;;;12.33;;
22894;SDS011;11614;52.494;6.976;2024-01-30T03:40:06;20.33;;;11.43;;
22894;SDS011;11614;52.494;6.976;2024-01-30T03:42:32;20.40;;;11.77;;
22894;SDS011;11614;52.494;6.976;2024-01-30T03:44:58;19.97;;;11.33;;
22894;SDS011;11614;52.494;6.976;2024-01-30T03:47:24;17.97;;;10.33;;
22894;SDS011;11614;52.494;6.976;2024-01-30T03:49:50;20.37;;;11.00;;
22894;SDS011;11614;52.494;6.976;2024-01-30T03:52:16;17.03;;;10.63;;
22894;SDS011;11614;52.494;6.976;2024-01-30T03:54:42;17.67;;;11.87;;
22894;SDS011;11614;52.494;6.976;2024-01-30T03:57:08;19.97;;;11.23;;
22894;SDS011;11614;52.494;6.976;2024-01-30T03:59:34;20.10;;;11.83;;
22894;SDS011;11614;52.494;6.976;2024-01-30T04:02:00;18.80;;;10.90;;
22894;SDS011;11614;52.494;6.976;2024-01-30T04:04:26;19.63;;;10.77;;
22894;SDS011;11614;52.494;6.976;2024-01-30T04:06:52;21.40;;;11.07;;
22894;SDS011;11614;52.494;6.976;2024-01-30T04:09:18;16.97;;;8.70;;
22894;SDS011;11614;52.494;6.976;2024-01-30T04:11:44;20.00;;;10.93;;
22894;SDS011;11614;52.494;6.976;2024-01-30T04:14:10;20.30;;;10.83;;
22894;SDS011;11614;52.494;6.976;2024-01-30T04:16:36;19.90;;;11.30;;
22894;SDS011;11614;52.494;6.976;2024-01-30T04:19:02;23.20;;;11.53;;
22894;SDS011;11614;52.494;6.976;2024-01-30T04:21:28;21.33;;;11.63;;
22894;SDS011;11614;52.494;6.976;2024-01-30T04:23:54;18.17;;;10.80;;
22894;SDS011;11614;52.494;6.976;2024-01-30T04:26:20;19.80;;;11.47;;
22894;SDS011;11614;52.494;6.976;2024-01-30T04:28:46;19.17;;;10.17;;
22894;SDS011;11614;52.494;6.976;2024-01-30T04:31:12;18.77;;;10.17;;
22894;SDS011;11614;52.494;6.976;2024-01-30T04:33:38;15.97;;;7.97;;
22894;SDS011;11614;52.494;6.976;2024-01-30T04:36:04;19.93;;;9.80;;
22894;SDS011;11614;52.494;6.976;2024-01-30T04:38:31;18.83;;;10.33;;
22894;SDS011;11614;52.494;6.976;2024-01-30T04:40:58;16.67;;;10.10;;
22894;SDS011;11614;52.494;6.976;2024-01-30T04:43:24;21.17;;;10.47;;
22894;SDS011;11614;52.494;6.976;2024-01-30T04:45:51;15.57;;;9.80;;
22894;SDS011;11614;52.494;6.976;2024-01-30T04:48:17;18.20;;;10.20;;
22894;SDS011;11614;52.494;6.976;2024-01-30T04:50:43;20.73;;;12.07;;
22894;SDS011;11614;52.494;6.976;2024-01-30T04:53:09;18.33;;;10.83;;
22894;SDS011;11614;52.494;6.976;2024-01-30T04:55:35;20.77;;;12.70;;
22894;SDS011;11614;52.494;6.976;2024-01-30T04:58:01;24.30;;;12.50;;
22894;SDS011;11614;52.494;6.976;2024-01-30T05:00:27;18.17;;;12.53;;
22894;SDS011;11614;52.494;6.976;2024-01-30T05:02:54;21.00;;;12.37;;
22894;SDS011;11614;52.494;6.976;2024-01-30T05:05:20;22.07;;;12.90;;
22894;SDS011;11614;52.494;6.976;2024-01-30T05:07:46;21.63;;;10.73;;
22894;SDS011;11614;52.494;6.976;2024-01-30T05:10:13;17.33;;;10.17;;
22894;SDS011;11614;52.494;6.976;2024-01-30T05:12:40;18.17;;;11.13;;
22894;SDS011;11614;52.494;6.976;2024-01-30T05:15:06;17.43;;;10.00;;
22894;SDS011;11614;52.494;6.976;2024-01-30T05:17:32;16.60;;;9.80;;
22894;SDS011;11614;52.494;6.976;2024-01-30T05:19:58;19.57;;;9.83;;
22894;SDS011;11614;52.494;6.976;2024-01-30T05:22:24;17.67;;;9.40;;
22894;SDS011;11614;52.494;6.976;2024-01-30T05:24:50;17.77;;;10.20;;
22894;SDS011;11614;52.494;6.976;2024-01-30T05:27:16;19.40;;;9.93;;
22894;SDS011;11614;52.494;6.976;2024-01-30T05:29:42;15.00;;;9.13;;
22894;SDS011;11614;52.494;6.976;2024-01-30T05:32:08;18.97;;;10.40;;
22894;SDS011;11614;52.494;6.976;2024-01-30T05:34:35;18.17;;;10.40;;
22894;SDS011;11614;52.494;6.976;2024-01-30T05:37:01;20.47;;;10.40;;
22894;SDS011;11614;52.494;6.976;2024-01-30T05:39:27;18.00;;;9.03;;
22894;SDS011;11614;52.494;6.976;2024-01-30T05:41:53;17.77;;;9.27;;
22894;SDS011;11614;52.494;6.976;2024-01-30T05:44:19;19.73;;;9.93;;
22894;SDS011;11614;52.494;6.976;2024-01-30T05:46:46;16.47;;;8.60;;
22894;SDS011;11614;52.494;6.976;2024-01-30T05:49:12;17.23;;;9.80;;
22894;SDS011;11614;52.494;6.976;2024-01-30T05:51:38;14.80;;;8.40;;
22894;SDS011;11614;52.494;6.976;2024-01-30T05:54:04;18.37;;;9.83;;
22894;SDS011;11614;52.494;6.976;2024-01-30T05:56:30;16.40;;;10.17;;
22894;SDS011;11614;52.494;6.976;2024-01-30T05:58:56;14.97;;;9.87;;
22894;SDS011;11614;52.494;6.976;2024-01-30T06:01:22;15.83;;;8.30;;
22894;SDS011;11614;52.494;6.976;2024-01-30T06:03:47;11.00;;;4.93;;
22894;SDS011;11614;52.494;6.976;2024-01-30T06:06:13;15.40;;;7.07;;
22894;SDS011;11614;52.494;6.976;2024-01-30T06:08:39;14.37;;;8.03;;
22894;SDS011;11614;52.494;6.976;2024-01-30T06:11:05;16.37;;;8.30;;
22894;SDS011;11614;52.494;6.976;2024-01-30T06:13:31;15.37;;;8.30;;
22894;SDS011;11614;52.494;6.976;2024-01-30T06:15:58;17.37;;;9.07;;
22894;SDS011;11614;52.494;6.976;2024-01-30T06:18:24;13.40;;;8.10;;
22894;SDS011;11614;52.494;6.976;2024-01-30T06:20:51;16.03;;;8.47;;
22894;SDS011;11614;52.494;6.976;2024-01-30T06:23:17;14.60;;;8.43;;
22894;SDS011;11614;52.494;6.976;2024-01-30T06:25:43;12.97;;;7.63;;
22894;SDS011;11614;52.494;6.976;2024-01-30T06:28:09;14.70;;;8.60;;
22894;SDS011;11614;52.494;6.976;2024-01-30T06:30:35;12.00;;;8.27;;
22894;SDS011;11614;52.494;6.976;2024-01-30T06:33:01;11.93;;;7.97;;
22894;SDS011;11614;52.494;6.976;2024-01-30T06:35:27;16.50;;;8.70;;
22894;SDS011;11614;52.494;6.976;2024-01-30T06:37:53;10.10;;;6.37;;
22894;SDS011;11614;52.494;6.976;2024-01-30T06:40:19;13.83;;;7.73;;
22894;SDS011;11614;52.494;6.976;2024-01-30T06:42:45;13.93;;;7.90;;
22894;SDS011;11614;52.494;6.976;2024-01-30T06:45:11;12.90;;;7.53;;
22894;SDS011;11614;52.494;6.976;2024-01-30T06:47:37;12.90;;;7.43;;
22894;SDS011;11614;52.494;6.976;2024-01-30T06:50:03;10.90;;;6.43;;
22894;SDS011;11614;52.494;6.976;2024-01-30T06:52:29;18.03;;;9.03;;
22894;SDS011;11614;52.494;6.976;2024-01-30T06:54:55;13.93;;;7.13;;
22894;SDS011;11614;52.494;6.976;2024-01-30T06:57:21;11.37;;;5.40;;
22894;SDS011;11614;52.494;6.976;2024-01-30T06:59:47;12.30;;;6.03;;
22894;SDS011;11614;52.494;6.976;2024-01-30T07:02:13;13.73;;;6.93;;
22894;SDS011;11614;52.494;6.976;2024-01-30T07:04:39;10.67;;;4.03;;
22894;SDS011;11614;52.494;6.976;2024-01-30T07:07:06;12.83;;;6.97;;
22894;SDS011;11614;52.494;6.976;2024-01-30T07:09:37;15.37;;;7.87;;
22894;SDS011;11614;52.494;6.976;2024-01-30T07:12:03;11.07;;;5.87;;
22894;SDS011;11614;52.494;6.976;2024-01-30T07:14:31;5.67;;;3.33;;
22894;SDS011;11614;52.494;6.976;2024-01-30T07:16:57;9.70;;;6.20;;
22894;SDS011;11614;52.494;6.976;2024-01-30T07:19:23;11.70;;;7.30;;
22894;SDS011;11614;52.494;6.976;2024-01-30T07:21:49;12.97;;;7.53;;
22894;SDS011;11614;52.494;6.976;2024-01-30T07:24:14;10.27;;;6.97;;
22894;SDS011;11614;52.494;6.976;2024-01-30T07:26:40;11.13;;;5.97;;
22894;SDS011;11614;52.494;6.976;2024-01-30T07:29:06;9.80;;;5.97;;
22894;SDS011;11614;52.494;6.976;2024-01-30T07:31:32;12.37;;;6.10;;
22894;SDS011;11614;52.494;6.976;2024-01-30T07:33:58;13.20;;;7.30;;
22894;SDS011;11614;52.494;6.976;2024-01-30T07:36:24;11.27;;;6.47;;
22894;SDS011;11614;52.494;6.976;2024-01-30T07:38:51;11.47;;;6.17;;
22894;SDS011;11614;52.494;6.976;2024-01-30T07:41:19;9.07;;;4.13;;
22894;SDS011;11614;52.494;6.976;2024-01-30T07:43:45;13.03;;;7.23;;
22894;SDS011;11614;52.494;6.976;2024-01-30T07:46:11;12.70;;;6.27;;
22894;SDS011;11614;52.494;6.976;2024-01-30T07:48:37;10.40;;;5.13;;
22894;SDS011;11614;52.494;6.976;2024-01-30T07:51:03;12.30;;;7.13;;
22894;SDS011;11614;52.494;6.976;2024-01-30T07:53:29;15.20;;;5.60;;
22894;SDS011;11614;52.494;6.976;2024-01-30T07:55:55;7.03;;;4.00;;
22894;SDS011;11614;52.494;6.976;2024-01-30T07:58:20;12.53;;;7.40;;
22894;SDS011;11614;52.494;6.976;2024-01-30T08:00:48;14.20;;;7.77;;
22894;SDS011;11614;52.494;6.976;2024-01-30T08:03:16;10.87;;;6.27;;
22894;SDS011;11614;52.494;6.976;2024-01-30T08:05:43;14.70;;;7.93;;
22894;SDS011;11614;52.494;6.976;2024-01-30T08:08:09;10.27;;;5.87;;
22894;SDS011;11614;52.494;6.976;2024-01-30T08:10:35;9.10;;;5.03;;
22894;SDS011;11614;52.494;6.976;2024-01-30T08:13:01;8.03;;;4.70;;
22894;SDS011;11614;52.494;6.976;2024-01-30T08:15:27;12.10;;;6.70;;
22894;SDS011;11614;52.494;6.976;2024-01-30T08:17:53;12.30;;;5.97;;
22894;SDS011;11614;52.494;6.976;2024-01-30T08:20:23;10.53;;;5.00;;
22894;SDS011;11614;52.494;6.976;2024-01-30T08:22:49;12.40;;;6.10;;
22894;SDS011;11614;52.494;6.976;2024-01-30T08:25:17;12.90;;;6.53;;
22894;SDS011;11614;52.494;6.976;2024-01-30T08:27:44;7.17;;;2.87;;
22894;SDS011;11614;52.494;6.976;2024-01-30T08:30:10;9.50;;;6.13;;
22894;SDS011;11614;52.494;6.976;2024-01-30T08:32:36;9.00;;;3.43;;
22894;SDS011;11614;52.494;6.976;2024-01-30T08:35:02;9.23;;;5.83;;
22894;SDS011;11614;52.494;6.976;2024-01-30T08:37:28;9.70;;;5.33;;
22894;SDS011;11614;52.494;6.976;2024-01-30T08:39:54;11.43;;;6.40;;
22894;SDS011;11614;52.494;6.976;2024-01-30T08:42:21;10.23;;;4.43;;
22894;SDS011;11614;52.494;6.976;2024-01-30T08:44:48;8.77;;;3.83;;
22894;SDS011;11614;52.494;6.976;2024-01-30T08:47:14;12.83;;;5.53;;
22894;SDS011;11614;52.494;6.976;2024-01-30T08:49:41;7.73;;;4.87;;
22894;SDS011;11614;52.494;6.976;2024-01-30T08:52:09;8.23;;;4.67;;
22894;SDS011;11614;52.494;6.976;2024-01-30T08:54:35;10.50;;;4.40;;
22894;SDS011;11614;52.494;6.976;2024-01-30T08:57:01;12.80;;;6.27;;
22894;SDS011;11614;52.494;6.976;2024-01-30T08:59:27;9.83;;;5.87;;
22894;SDS011;11614;52.494;6.976;2024-01-30T09:01:53;8.83;;;4.97;;
22894;SDS011;11614;52.494;6.976;2024-01-30T09:04:20;9.17;;;5.57;;
22894;SDS011;11614;52.494;6.976;2024-01-30T09:06:47;8.93;;;5.50;;
22894;SDS011;11614;52.494;6.976;2024-01-30T09:09:13;10.73;;;6.40;;
22894;SDS011;11614;52.494;6.976;2024-01-30T09:11:39;7.70;;;4.73;;
22894;SDS011;11614;52.494;6.976;2024-01-30T09:14:05;8.70;;;4.70;;
22894;SDS011;11614;52.494;6.976;2024-01-30T09:16:31;8.67;;;4.60;;
22894;SDS011;11614;52.494;6.976;2024-01-30T09:18:57;7.17;;;4.00;;
22894;SDS011;11614;52.494;6.976;2024-01-30T09:21:24;9.57;;;4.33;;
22894;SDS011;11614;52.494;6.976;2024-01-30T09:23:50;6.57;;;3.73;;
22894;SDS011;11614;52.494;6.976;2024-01-30T09:26:16;7.27;;;3.90;;
22894;SDS011;11614;52.494;6.976;2024-01-30T09:28:42;6.47;;;3.53;;
22894;SDS011;11614;52.494;6.976;2024-01-30T09:31:11;6.40;;;3.30;;
22894;SDS011;11614;52.494;6.976;2024-01-30T09:33:37;5.47;;;3.00;;
22894;SDS011;11614;52.494;6.976;2024-01-30T09:36:04;7.13;;;3.73;;
22894;SDS011;11614;52.494;6.976;2024-01-30T09:38:31;9.13;;;4.93;;
22894;SDS011;11614;52.494;6.976;2024-01-30T09:40:57;6.13;;;3.80;;
22894;SDS011;11614;52.494;6.976;2024-01-30T09:43:26;8.73;;;4.77;;
22894;SDS011;11614;52.494;6.976;2024-01-30T09:45:56;10.07;;;5.40;;
22894;SDS011;11614;52.494;6.976;2024-01-30T09:48:23;6.77;;;2.83;;
22894;SDS011;11614;52.494;6.976;2024-01-30T09:50:49;6.23;;;3.40;;
22894;SDS011;11614;52.494;6.976;2024-01-30T09:53:16;9.57;;;4.53;;
22894;SDS011;11614;52.494;6.976;2024-01-30T09:55:43;6.07;;;3.77;;
22894;SDS011;11614;52.494;6.976;2024-01-30T09:58:09;8.90;;;4.23;;
22894;SDS011;11614;52.494;6.976;2024-01-30T10:00:35;8.47;;;4.90;;
22894;SDS011;11614;52.494;6.976;2024-01-30T10:03:01;8.23;;;5.17;;
22894;SDS011;11614;52.494;6.976;2024-01-30T10:05:27;8.07;;;4.63;;
22894;SDS011;11614;52.494;6.976;2024-01-30T10:07:56;10.37;;;4.17;;
22894;SDS011;11614;52.494;6.976;2024-01-30T10:10:23;9.10;;;4.30;;
22894;SDS011;11614;52.494;6.976;2024-01-30T10:12:49;10.33;;;4.67;;
22894;SDS011;11614;52.494;6.976;2024-01-30T10:15:15;7.80;;;4.27;;
22894;SDS011;11614;52.494;6.976;2024-01-30T10:17:41;10.40;;;4.70;;
22894;SDS011;11614;52.494;6.976;2024-01-30T10:20:07;8.83;;;4.27;;
22894;SDS011;11614;52.494;6.976;2024-01-30T10:22:33;8.03;;;4.47;;
22894;SDS011;11614;52.494;6.976;2024-01-30T10:25:00;9.43;;;4.83;;
22894;SDS011;11614;52.494;6.976;2024-01-30T10:27:29;7.77;;;5.37;;
22894;SDS011;11614;52.494;6.976;2024-01-30T10:29:55;8.17;;;3.07;;
22894;SDS011;11614;52.494;6.976;2024-01-30T10:32:21;10.07;;;5.53;;
22894;SDS011;11614;52.494;6.976;2024-01-30T10:34:47;9.60;;;5.80;;
22894;SDS011;11614;52.494;6.976;2024-01-30T10:37:13;9.43;;;4.93;;
22894;SDS011;11614;52.494;6.976;2024-01-30T10:39:42;7.23;;;4.37;;
22894;SDS011;11614;52.494;6.976;2024-01-30T10:42:11;11.63;;;5.47;;
22894;SDS011;11614;52.494;6.976;2024-01-30T10:44:39;10.03;;;5.17;;
22894;SDS011;11614;52.494;6.976;2024-01-30T10:47:11;9.77;;;3.70;;
22894;SDS011;11614;52.494;6.976;2024-01-30T10:49:41;9.10;;;5.47;;
22894;SDS011;11614;52.494;6.976;2024-01-30T10:52:11;11.37;;;6.03;;
22894;SDS011;11614;52.494;6.976;2024-01-30T10:54:38;9.60;;;4.67;;
22894;SDS011;11614;52.494;6.976;2024-01-30T10:57:05;7.70;;;4.87;;
22894;SDS011;11614;52.494;6.976;2024-01-30T10:59:32;9.53;;;4.87;;
22894;SDS011;11614;52.494;6.976;2024-01-30T11:01:58;11.00;;;5.03;;
22894;SDS011;11614;52.494;6.976;2024-01-30T11:04:25;8.83;;;5.40;;
22894;SDS011;11614;52.494;6.976;2024-01-30T11:06:51;8.53;;;5.70;;
22894;SDS011;11614;52.494;6.976;2024-01-30T11:09:19;10.03;;;5.43;;
22894;SDS011;11614;52.494;6.976;2024-01-30T11:11:48;11.17;;;4.57;;
22894;SDS011;11614;52.494;6.976;2024-01-30T11:14:14;10.30;;;5.80;;
22894;SDS011;11614;52.494;6.976;2024-01-30T11:16:40;12.67;;;5.73;;
22894;SDS011;11614;52.494;6.976;2024-01-30T11:19:10;11.00;;;5.13;;
22894;SDS011;11614;52.494;6.976;2024-01-30T11:21:41;10.17;;;6.20;;
22894;SDS011;11614;52.494;6.976;2024-01-30T11:24:07;8.50;;;5.33;;
22894;SDS011;11614;52.494;6.976;2024-01-30T11:26:33;11.87;;;5.83;;
22894;SDS011;11614;52.494;6.976;2024-01-30T11:29:02;8.67;;;4.27;;
22894;SDS011;11614;52.494;6.976;2024-01-30T11:31:29;9.43;;;3.83;;
22894;SDS011;11614;52.494;6.976;2024-01-30T11:33:56;8.80;;;5.00;;
22894;SDS011;11614;52.494;6.976;2024-01-30T11:36:24;9.67;;;4.40;;
22894;SDS011;11614;52.494;6.976;2024-01-30T11:38:51;8.23;;;4.60;;
22894;SDS011;11614;52.494;6.976;2024-01-30T11:41:17;11.70;;;4.97;;
22894;SDS011;11614;52.494;6.976;2024-01-30T11:43:50;7.80;;;4.37;;
22894;SDS011;11614;52.494;6.976;2024-01-30T11:46:16;9.47;;;4.97;;
22894;SDS011;11614;52.494;6.976;2024-01-30T11:48:42;10.03;;;5.83;;
22894;SDS011;11614;52.494;6.976;2024-01-30T11:51:08;6.37;;;4.30;;
22894;SDS011;11614;52.494;6.976;2024-01-30T11:53:34;10.60;;;4.90;;
22894;SDS011;11614;52.494;6.976;2024-01-30T11:56:00;9.13;;;4.67;;
22894;SDS011;11614;52.494;6.976;2024-01-30T11:58:26;8.83;;;5.03;;
22894;SDS011;11614;52.494;6.976;2024-01-30T12:00:56;8.23;;;4.27;;
22894;SDS011;11614;52.494;6.976;2024-01-30T12:03:22;9.27;;;4.77;;
22894;SDS011;11614;52.494;6.976;2024-01-30T12:05:54;11.03;;;5.50;;
22894;SDS011;11614;52.494;6.976;2024-01-30T12:08:21;10.33;;;6.23;;
22894;SDS011;11614;52.494;6.976;2024-01-30T12:10:54;8.17;;;4.27;;
22894;SDS011;11614;52.494;6.976;2024-01-30T12:13:20;7.03;;;4.20;;
22894;SDS011;11614;52.494;6.976;2024-01-30T12:15:47;7.43;;;4.07;;
22894;SDS011;11614;52.494;6.976;2024-01-30T12:18:13;8.23;;;5.03;;
22894;SDS011;11614;52.494;6.976;2024-01-30T12:20:39;8.97;;;4.73;;
22894;SDS011;11614;52.494;6.976;2024-01-30T12:23:05;10.07;;;5.33;;
22894;SDS011;11614;52.494;6.976;2024-01-30T12:25:31;10.30;;;4.63;;
22894;SDS011;11614;52.494;6.976;2024-01-30T12:27:57;7.57;;;3.90;;
22894;SDS011;11614;52.494;6.976;2024-01-30T12:30:23;6.77;;;2.80;;
22894;SDS011;11614;52.494;6.976;2024-01-30T12:32:49;9.20;;;4.53;;
22894;SDS011;11614;52.494;6.976;2024-01-30T12:35:16;11.33;;;4.50;;
22894;SDS011;11614;52.494;6.976;2024-01-30T12:37:43;7.50;;;3.80;;
22894;SDS011;11614;52.494;6.976;2024-01-30T12:40:10;10.43;;;4.93;;
22894;SDS011;11614;52.494;6.976;2024-01-30T12:42:38;8.00;;;3.57;;
22894;SDS011;11614;52.494;6.976;2024-01-30T12:45:04;3.87;;;2.27;;
22894;SDS011;11614;52.494;6.976;2024-01-30T12:47:31;7.50;;;4.43;;
22894;SDS011;11614;52.494;6.976;2024-01-30T12:49:57;7.83;;;4.33;;
22894;SDS011;11614;52.494;6.976;2024-01-30T12:52:24;7.70;;;3.90;;
22894;SDS011;11614;52.494;6.976;2024-01-30T12:54:50;7.27;;;2.70;;
22894;SDS011;11614;52.494;6.976;2024-01-30T12:57:17;8.23;;;4.43;;
22894;SDS011;11614;52.494;6.976;2024-01-30T12:59:46;9.30;;;5.20;;
22894;SDS011;11614;52.494;6.976;2024-01-30T13:02:12;9.47;;;5.07;;
22894;SDS011;11614;52.494;6.976;2024-01-30T13:04:39;6.87;;;3.50;;
22894;SDS011;11614;52.494;6.976;2024-01-30T13:07:05;8.57;;;5.10;;
22894;SDS011;11614;52.494;6.976;2024-01-30T13:09:31;6.53;;;3.70;;
22894;SDS011;11614;52.494;6.976;2024-01-30T13:11:57;8.83;;;4.17;;
22894;SDS011;11614;52.494;6.976;2024-01-30T13:14:23;7.60;;;3.93;;
22894;SDS011;11614;52.494;6.976;2024-01-30T13:16:50;10.20;;;4.87;;
22894;SDS011;11614;52.494;6.976;2024-01-30T13:19:16;6.30;;;3.87;;
22894;SDS011;11614;52.494;6.976;2024-01-30T13:21:42;6.13;;;4.57;;
22894;SDS011;11614;52.494;6.976;2024-01-30T13:24:08;7.30;;;4.40;;
22894;SDS011;11614;52.494;6.976;2024-01-30T13:26:34;10.67;;;5.60;;
22894;SDS011;11614;52.494;6.976;2024-01-30T13:29:00;8.10;;;4.70;;
22894;SDS011;11614;52.494;6.976;2024-01-30T13:31:26;7.37;;;3.87;;
22894;SDS011;11614;52.494;6.976;2024-01-30T13:33:53;6.30;;;3.77;;
22894;SDS011;11614;52.494;6.976;2024-01-30T13:36:19;5.87;;;3.67;;
22894;SDS011;11614;52.494;6.976;2024-01-30T13:38:45;6.10;;;3.30;;
22894;SDS011;11614;52.494;6.976;2024-01-30T13:41:11;6.17;;;3.67;;
22894;SDS011;11614;52.494;6.976;2024-01-30T13:43:37;5.43;;;3.83;;
22894;SDS011;11614;52.494;6.976;2024-01-30T13:46:03;6.67;;;3.43;;
22894;SDS011;11614;52.494;6.976;2024-01-30T13:48:29;4.83;;;3.07;;
22894;SDS011;11614;52.494;6.976;2024-01-30T13:50:55;7.10;;;4.33;;
22894;SDS011;11614;52.494;6.976;2024-01-30T13:53:21;5.93;;;3.60;;
22894;SDS011;11614;52.494;6.976;2024-01-30T13:55:48;7.07;;;3.93;;
22894;SDS011;11614;52.494;6.976;2024-01-30T13:58:14;8.80;;;3.57;;
22894;SDS011;11614;52.494;6.976;2024-01-30T14:00:39;4.93;;;3.63;;
22894;SDS011;11614;52.494;6.976;2024-01-30T14:03:05;4.43;;;2.67;;
22894;SDS011;11614;52.494;6.976;2024-01-30T14:05:31;5.20;;;3.10;;
22894;SDS011;11614;52.494;6.976;2024-01-30T14:07:57;6.77;;;4.30;;
22894;SDS011;11614;52.494;6.976;2024-01-30T14:10:24;3.90;;;1.80;;
22894;SDS011;11614;52.494;6.976;2024-01-30T14:12:51;6.77;;;2.53;;
22894;SDS011;11614;52.494;6.976;2024-01-30T14:15:17;4.40;;;2.70;;
22894;SDS011;11614;52.494;6.976;2024-01-30T14:17:43;7.93;;;2.70;;
22894;SDS011;11614;52.494;6.976;2024-01-30T14:20:10;4.97;;;3.20;;
22894;SDS011;11614;52.494;6.976;2024-01-30T14:22:36;3.33;;;1.53;;
22894;SDS011;11614;52.494;6.976;2024-01-30T14:25:03;4.63;;;2.10;;
22894;SDS011;11614;52.494;6.976;2024-01-30T14:27:30;5.00;;;2.13;;
22894;SDS011;11614;52.494;6.976;2024-01-30T14:29:56;3.77;;;2.03;;
22894;SDS011;11614;52.494;6.976;2024-01-30T14:32:23;4.43;;;1.87;;